sensor_id;sensor_type;location;lat;lon;timestamp;temperature;humidity
41310;DHT22;27057;51.438;-0.010;2023-08-06T00:01:18;13.60;99.90
41310;DHT22;27057;51.438;-0.010;2023-08-06T00:03:48;13.60;99.90
41310;DHT22;27057;51.438;-0.010;2023-08-06T00:06:16;13.60;99.90
41310;DHT22;27057;51.438;-0.010;2023-08-06T00:08:43;13.60;99.90
41310;DHT22;27057;51.438;-0.010;2023-08-06T00:13:40;13.60;99.90
41310;DHT22;27057;51.438;-0.010;2023-08-06T00:16:13;13.60;99.90
41310;DHT22;27057;51.438;-0.010;2023-08-06T00:18:41;13.40;99.90
41310;DHT22;27057;51.438;-0.010;2023-08-06T00:21:08;14.00;99.90
41310;DHT22;27057;51.438;-0.010;2023-08-06T00:23:36;13.50;99.90
41310;DHT22;27057;51.438;-0.010;2023-08-06T00:26:03;13.50;99.90
41310;DHT22;27057;51.438;-0.010;2023-08-06T00:28:30;13.20;99.90
41310;DHT22;27057;51.438;-0.010;2023-08-06T00:30:58;13.40;99.90
41310;DHT22;27057;51.438;-0.010;2023-08-06T00:33:25;13.60;99.90
41310;DHT22;27057;51.438;-0.010;2023-08-06T00:35:52;14.10;99.90
41310;DHT22;27057;51.438;-0.010;2023-08-06T00:38:20;13.30;99.90
41310;DHT22;27057;51.438;-0.010;2023-08-06T00:40:47;13.40;99.90
41310;DHT22;27057;51.438;-0.010;2023-08-06T00:43:16;13.50;99.90
41310;DHT22;27057;51.438;-0.010;2023-08-06T00:45:43;13.40;99.90
41310;DHT22;27057;51.438;-0.010;2023-08-06T00:48:11;13.40;99.90
41310;DHT22;27057;51.438;-0.010;2023-08-06T00:50:38;13.40;99.90
41310;DHT22;27057;51.438;-0.010;2023-08-06T00:53:06;13.30;99.90
41310;DHT22;27057;51.438;-0.010;2023-08-06T00:55:34;13.20;99.90
41310;DHT22;27057;51.438;-0.010;2023-08-06T00:58:02;13.20;99.90
41310;DHT22;27057;51.438;-0.010;2023-08-06T01:00:29;13.20;99.90
41310;DHT22;27057;51.438;-0.010;2023-08-06T01:02:57;13.00;99.90
41310;DHT22;27057;51.438;-0.010;2023-08-06T01:05:25;13.20;99.90
41310;DHT22;27057;51.438;-0.010;2023-08-06T01:10:51;13.10;99.90
41310;DHT22;27057;51.438;-0.010;2023-08-06T01:13:37;13.00;99.90
41310;DHT22;27057;51.438;-0.010;2023-08-06T01:16:09;12.90;99.90
41310;DHT22;27057;51.438;-0.010;2023-08-06T01:18:37;12.90;99.90
41310;DHT22;27057;51.438;-0.010;2023-08-06T01:21:06;12.70;99.90
41310;DHT22;27057;51.438;-0.010;2023-08-06T01:23:33;12.90;99.90
41310;DHT22;27057;51.438;-0.010;2023-08-06T01:26:33;12.70;99.90
41310;DHT22;27057;51.438;-0.010;2023-08-06T01:29:17;12.80;99.90
41310;DHT22;27057;51.438;-0.010;2023-08-06T01:31:48;12.90;99.90
41310;DHT22;27057;51.438;-0.010;2023-08-06T01:34:24;13.20;99.90
41310;DHT22;27057;51.438;-0.010;2023-08-06T01:36:53;12.70;99.90
41310;DHT22;27057;51.438;-0.010;2023-08-06T01:39:20;12.50;99.90
41310;DHT22;27057;51.438;-0.010;2023-08-06T01:41:48;12.60;99.90
41310;DHT22;27057;51.438;-0.010;2023-08-06T01:44:16;12.50;99.90
41310;DHT22;27057;51.438;-0.010;2023-08-06T01:46:44;12.50;99.90
41310;DHT22;27057;51.438;-0.010;2023-08-06T01:49:11;12.50;99.90
41310;DHT22;27057;51.438;-0.010;2023-08-06T01:51:39;12.70;99.90
41310;DHT22;27057;51.438;-0.010;2023-08-06T01:54:06;12.90;99.90
41310;DHT22;27057;51.438;-0.010;2023-08-06T01:56:33;12.40;99.90
41310;DHT22;27057;51.438;-0.010;2023-08-06T01:59:01;12.70;99.90
41310;DHT22;27057;51.438;-0.010;2023-08-06T02:01:31;13.00;99.90
41310;DHT22;27057;51.438;-0.010;2023-08-06T02:03:59;12.90;99.90
41310;DHT22;27057;51.438;-0.010;2023-08-06T02:06:26;12.50;99.90
41310;DHT22;27057;51.438;-0.010;2023-08-06T02:08:53;12.70;99.90
41310;DHT22;27057;51.438;-0.010;2023-08-06T02:11:21;12.70;99.90
41310;DHT22;27057;51.438;-0.010;2023-08-06T02:13:48;12.70;99.90
41310;DHT22;27057;51.438;-0.010;2023-08-06T02:16:18;12.70;99.90
41310;DHT22;27057;51.438;-0.010;2023-08-06T02:18:46;12.50;99.90
41310;DHT22;27057;51.438;-0.010;2023-08-06T02:21:13;12.50;99.90
41310;DHT22;27057;51.438;-0.010;2023-08-06T02:23:41;12.60;99.90
41310;DHT22;27057;51.438;-0.010;2023-08-06T02:26:10;12.60;99.90
41310;DHT22;27057;51.438;-0.010;2023-08-06T02:28:37;12.40;99.90
41310;DHT22;27057;51.438;-0.010;2023-08-06T02:31:05;12.50;99.90
41310;DHT22;27057;51.438;-0.010;2023-08-06T02:33:36;12.50;99.90
41310;DHT22;27057;51.438;-0.010;2023-08-06T02:36:04;12.30;99.90
41310;DHT22;27057;51.438;-0.010;2023-08-06T02:38:32;12.50;99.90
41310;DHT22;27057;51.438;-0.010;2023-08-06T02:41:03;12.40;99.90
41310;DHT22;27057;51.438;-0.010;2023-08-06T02:43:32;12.60;99.90
41310;DHT22;27057;51.438;-0.010;2023-08-06T02:46:01;12.40;99.90
41310;DHT22;27057;51.438;-0.010;2023-08-06T02:48:28;12.30;99.90
41310;DHT22;27057;51.438;-0.010;2023-08-06T02:50:59;12.20;99.90
41310;DHT22;27057;51.438;-0.010;2023-08-06T02:53:29;12.30;99.90
41310;DHT22;27057;51.438;-0.010;2023-08-06T02:55:59;12.00;99.90
41310;DHT22;27057;51.438;-0.010;2023-08-06T02:58:34;12.20;99.90
41310;DHT22;27057;51.438;-0.010;2023-08-06T03:01:09;12.30;99.90
41310;DHT22;27057;51.438;-0.010;2023-08-06T03:03:46;12.00;99.90
41310;DHT22;27057;51.438;-0.010;2023-08-06T03:06:20;12.10;99.90
41310;DHT22;27057;51.438;-0.010;2023-08-06T03:08:52;12.00;99.90
41310;DHT22;27057;51.438;-0.010;2023-08-06T03:11:20;11.90;99.90
41310;DHT22;27057;51.438;-0.010;2023-08-06T03:13:49;12.10;99.90
41310;DHT22;27057;51.438;-0.010;2023-08-06T03:16:17;12.10;99.90
41310;DHT22;27057;51.438;-0.010;2023-08-06T03:18:45;12.10;99.90
41310;DHT22;27057;51.438;-0.010;2023-08-06T03:21:12;12.20;99.90
41310;DHT22;27057;51.438;-0.010;2023-08-06T03:23:40;12.30;99.90
41310;DHT22;27057;51.438;-0.010;2023-08-06T03:26:08;12.60;99.90
41310;DHT22;27057;51.438;-0.010;2023-08-06T03:28:37;12.00;99.90
41310;DHT22;27057;51.438;-0.010;2023-08-06T03:31:05;11.80;99.90
41310;DHT22;27057;51.438;-0.010;2023-08-06T03:33:42;12.20;99.90
41310;DHT22;27057;51.438;-0.010;2023-08-06T03:36:14;12.00;99.90
41310;DHT22;27057;51.438;-0.010;2023-08-06T03:38:42;12.00;99.90
41310;DHT22;27057;51.438;-0.010;2023-08-06T03:41:12;11.80;99.90
41310;DHT22;27057;51.438;-0.010;2023-08-06T03:43:40;11.80;99.90
41310;DHT22;27057;51.438;-0.010;2023-08-06T03:46:12;11.90;99.90
41310;DHT22;27057;51.438;-0.010;2023-08-06T03:48:39;11.90;99.90
41310;DHT22;27057;51.438;-0.010;2023-08-06T03:51:06;11.90;99.90
41310;DHT22;27057;51.438;-0.010;2023-08-06T03:53:34;11.90;99.90
41310;DHT22;27057;51.438;-0.010;2023-08-06T03:56:02;11.90;99.90
41310;DHT22;27057;51.438;-0.010;2023-08-06T03:58:31;11.80;99.90
41310;DHT22;27057;51.438;-0.010;2023-08-06T04:01:00;11.70;99.90
41310;DHT22;27057;51.438;-0.010;2023-08-06T04:03:32;11.70;99.90
41310;DHT22;27057;51.438;-0.010;2023-08-06T04:06:02;11.80;99.90
41310;DHT22;27057;51.438;-0.010;2023-08-06T04:08:30;11.90;99.90
41310;DHT22;27057;51.438;-0.010;2023-08-06T04:10:57;11.80;99.90
41310;DHT22;27057;51.438;-0.010;2023-08-06T04:13:25;11.80;99.90
41310;DHT22;27057;51.438;-0.010;2023-08-06T04:15:52;11.80;99.90
41310;DHT22;27057;51.438;-0.010;2023-08-06T04:18:21;11.80;99.90
41310;DHT22;27057;51.438;-0.010;2023-08-06T04:20:49;11.80;99.90
41310;DHT22;27057;51.438;-0.010;2023-08-06T04:23:16;12.40;99.90
41310;DHT22;27057;51.438;-0.010;2023-08-06T04:25:44;11.80;99.90
41310;DHT22;27057;51.438;-0.010;2023-08-06T04:28:13;11.80;99.90
41310;DHT22;27057;51.438;-0.010;2023-08-06T04:30:40;11.70;99.90
41310;DHT22;27057;51.438;-0.010;2023-08-06T04:33:08;11.90;99.90
41310;DHT22;27057;51.438;-0.010;2023-08-06T04:35:36;11.70;99.90
41310;DHT22;27057;51.438;-0.010;2023-08-06T04:38:03;11.70;99.90
41310;DHT22;27057;51.438;-0.010;2023-08-06T04:40:34;11.70;99.90
41310;DHT22;27057;51.438;-0.010;2023-08-06T04:43:02;11.60;99.90
41310;DHT22;27057;51.438;-0.010;2023-08-06T04:45:33;11.60;99.90
41310;DHT22;27057;51.438;-0.010;2023-08-06T04:48:00;11.50;99.90
41310;DHT22;27057;51.438;-0.010;2023-08-06T04:50:28;11.60;99.90
41310;DHT22;27057;51.438;-0.010;2023-08-06T04:52:55;11.60;99.90
41310;DHT22;27057;51.438;-0.010;2023-08-06T04:55:22;11.50;99.90
41310;DHT22;27057;51.438;-0.010;2023-08-06T04:57:50;11.60;99.90
41310;DHT22;27057;51.438;-0.010;2023-08-06T05:00:17;11.40;99.90
41310;DHT22;27057;51.438;-0.010;2023-08-06T05:02:44;11.50;99.90
41310;DHT22;27057;51.438;-0.010;2023-08-06T05:05:12;11.50;99.90
41310;DHT22;27057;51.438;-0.010;2023-08-06T05:07:39;11.50;99.90
41310;DHT22;27057;51.438;-0.010;2023-08-06T05:10:07;11.60;99.90
41310;DHT22;27057;51.438;-0.010;2023-08-06T05:12:35;11.60;99.90
41310;DHT22;27057;51.438;-0.010;2023-08-06T05:15:02;11.60;99.90
41310;DHT22;27057;51.438;-0.010;2023-08-06T05:17:30;11.60;99.90
41310;DHT22;27057;51.438;-0.010;2023-08-06T05:19:57;11.40;99.90
41310;DHT22;27057;51.438;-0.010;2023-08-06T05:22:25;11.30;99.90
41310;DHT22;27057;51.438;-0.010;2023-08-06T05:24:52;11.60;99.90
41310;DHT22;27057;51.438;-0.010;2023-08-06T05:27:20;11.60;99.90
41310;DHT22;27057;51.438;-0.010;2023-08-06T05:29:48;11.30;99.90
41310;DHT22;27057;51.438;-0.010;2023-08-06T05:32:15;11.50;99.90
41310;DHT22;27057;51.438;-0.010;2023-08-06T05:34:42;11.70;99.90
41310;DHT22;27057;51.438;-0.010;2023-08-06T05:37:10;11.70;99.90
41310;DHT22;27057;51.438;-0.010;2023-08-06T05:39:37;11.80;99.90
41310;DHT22;27057;51.438;-0.010;2023-08-06T05:42:05;11.80;99.90
41310;DHT22;27057;51.438;-0.010;2023-08-06T05:44:32;11.80;99.90
41310;DHT22;27057;51.438;-0.010;2023-08-06T05:47:00;11.90;99.90
41310;DHT22;27057;51.438;-0.010;2023-08-06T05:49:27;12.10;99.90
41310;DHT22;27057;51.438;-0.010;2023-08-06T05:51:54;11.90;99.90
41310;DHT22;27057;51.438;-0.010;2023-08-06T05:54:22;11.90;99.90
41310;DHT22;27057;51.438;-0.010;2023-08-06T05:56:49;12.90;99.90
41310;DHT22;27057;51.438;-0.010;2023-08-06T05:59:16;11.80;99.90
41310;DHT22;27057;51.438;-0.010;2023-08-06T06:01:44;12.10;99.90
41310;DHT22;27057;51.438;-0.010;2023-08-06T06:04:11;11.90;99.90
41310;DHT22;27057;51.438;-0.010;2023-08-06T06:06:38;12.10;99.90
41310;DHT22;27057;51.438;-0.010;2023-08-06T06:09:06;12.20;99.90
41310;DHT22;27057;51.438;-0.010;2023-08-06T06:11:33;12.10;99.90
41310;DHT22;27057;51.438;-0.010;2023-08-06T06:14:00;12.10;99.90
41310;DHT22;27057;51.438;-0.010;2023-08-06T06:16:28;12.30;99.90
41310;DHT22;27057;51.438;-0.010;2023-08-06T06:18:55;12.30;99.90
41310;DHT22;27057;51.438;-0.010;2023-08-06T06:21:24;12.30;99.90
41310;DHT22;27057;51.438;-0.010;2023-08-06T06:23:51;12.40;99.90
41310;DHT22;27057;51.438;-0.010;2023-08-06T06:26:19;12.50;99.90
41310;DHT22;27057;51.438;-0.010;2023-08-06T06:28:46;12.50;99.90
41310;DHT22;27057;51.438;-0.010;2023-08-06T06:31:13;12.60;99.90
41310;DHT22;27057;51.438;-0.010;2023-08-06T06:33:41;12.80;99.90
41310;DHT22;27057;51.438;-0.010;2023-08-06T06:36:08;12.70;99.90
41310;DHT22;27057;51.438;-0.010;2023-08-06T06:38:36;12.70;99.90
41310;DHT22;27057;51.438;-0.010;2023-08-06T06:41:04;12.70;99.90
41310;DHT22;27057;51.438;-0.010;2023-08-06T06:43:31;12.80;99.90
41310;DHT22;27057;51.438;-0.010;2023-08-06T06:45:59;12.70;99.90
41310;DHT22;27057;51.438;-0.010;2023-08-06T06:48:29;13.50;99.90
41310;DHT22;27057;51.438;-0.010;2023-08-06T06:50:57;13.00;99.90
41310;DHT22;27057;51.438;-0.010;2023-08-06T06:53:24;13.00;99.90
41310;DHT22;27057;51.438;-0.010;2023-08-06T06:55:55;12.90;99.90
41310;DHT22;27057;51.438;-0.010;2023-08-06T06:58:23;12.90;99.90
41310;DHT22;27057;51.438;-0.010;2023-08-06T07:00:50;12.90;99.90
41310;DHT22;27057;51.438;-0.010;2023-08-06T07:03:19;13.60;99.90
41310;DHT22;27057;51.438;-0.010;2023-08-06T07:05:47;13.20;99.90
41310;DHT22;27057;51.438;-0.010;2023-08-06T07:08:15;13.50;99.90
41310;DHT22;27057;51.438;-0.010;2023-08-06T07:10:43;13.30;99.90
41310;DHT22;27057;51.438;-0.010;2023-08-06T07:13:10;13.40;99.90
41310;DHT22;27057;51.438;-0.010;2023-08-06T07:15:37;13.50;99.90
41310;DHT22;27057;51.438;-0.010;2023-08-06T07:18:05;13.50;99.90
41310;DHT22;27057;51.438;-0.010;2023-08-06T07:20:32;13.60;99.90
41310;DHT22;27057;51.438;-0.010;2023-08-06T07:23:01;13.70;99.90
41310;DHT22;27057;51.438;-0.010;2023-08-06T07:25:29;13.60;99.90
41310;DHT22;27057;51.438;-0.010;2023-08-06T07:27:56;13.80;99.90
41310;DHT22;27057;51.438;-0.010;2023-08-06T07:30:24;13.70;99.90
41310;DHT22;27057;51.438;-0.010;2023-08-06T07:32:52;13.70;99.90
41310;DHT22;27057;51.438;-0.010;2023-08-06T07:35:20;13.80;99.90
41310;DHT22;27057;51.438;-0.010;2023-08-06T07:37:47;13.90;99.90
41310;DHT22;27057;51.438;-0.010;2023-08-06T07:40:14;13.70;99.90
41310;DHT22;27057;51.438;-0.010;2023-08-06T07:42:42;14.00;99.90
41310;DHT22;27057;51.438;-0.010;2023-08-06T07:45:09;14.00;99.90
41310;DHT22;27057;51.438;-0.010;2023-08-06T07:47:37;14.50;99.90
41310;DHT22;27057;51.438;-0.010;2023-08-06T07:50:05;14.10;99.90
41310;DHT22;27057;51.438;-0.010;2023-08-06T07:52:33;14.00;99.90
41310;DHT22;27057;51.438;-0.010;2023-08-06T07:55:00;14.60;99.90
41310;DHT22;27057;51.438;-0.010;2023-08-06T07:57:29;14.40;99.90
41310;DHT22;27057;51.438;-0.010;2023-08-06T07:59:56;14.20;99.90
41310;DHT22;27057;51.438;-0.010;2023-08-06T08:02:24;14.50;99.90
41310;DHT22;27057;51.438;-0.010;2023-08-06T08:04:51;14.40;99.90
41310;DHT22;27057;51.438;-0.010;2023-08-06T08:07:18;14.60;99.90
41310;DHT22;27057;51.438;-0.010;2023-08-06T08:09:46;14.70;99.90
41310;DHT22;27057;51.438;-0.010;2023-08-06T08:12:15;14.50;99.90
41310;DHT22;27057;51.438;-0.010;2023-08-06T08:14:42;14.70;99.90
41310;DHT22;27057;51.438;-0.010;2023-08-06T08:17:12;14.70;99.90
41310;DHT22;27057;51.438;-0.010;2023-08-06T08:19:40;14.80;99.90
41310;DHT22;27057;51.438;-0.010;2023-08-06T08:22:08;14.70;99.90
41310;DHT22;27057;51.438;-0.010;2023-08-06T08:24:35;15.30;99.90
41310;DHT22;27057;51.438;-0.010;2023-08-06T08:27:03;15.30;99.90
41310;DHT22;27057;51.438;-0.010;2023-08-06T08:29:30;14.90;99.90
41310;DHT22;27057;51.438;-0.010;2023-08-06T08:31:57;15.00;99.90
41310;DHT22;27057;51.438;-0.010;2023-08-06T08:34:25;15.30;99.90
41310;DHT22;27057;51.438;-0.010;2023-08-06T08:36:52;15.10;99.90
41310;DHT22;27057;51.438;-0.010;2023-08-06T08:39:20;15.20;99.90
41310;DHT22;27057;51.438;-0.010;2023-08-06T08:41:47;15.30;99.90
41310;DHT22;27057;51.438;-0.010;2023-08-06T08:44:16;15.30;99.90
41310;DHT22;27057;51.438;-0.010;2023-08-06T08:46:45;15.40;99.90
41310;DHT22;27057;51.438;-0.010;2023-08-06T08:49:15;15.70;99.90
41310;DHT22;27057;51.438;-0.010;2023-08-06T08:51:43;15.50;99.90
41310;DHT22;27057;51.438;-0.010;2023-08-06T08:54:13;15.80;99.90
41310;DHT22;27057;51.438;-0.010;2023-08-06T08:56:42;15.70;99.90
41310;DHT22;27057;51.438;-0.010;2023-08-06T08:59:10;15.60;99.90
41310;DHT22;27057;51.438;-0.010;2023-08-06T09:01:39;15.80;99.90
41310;DHT22;27057;51.438;-0.010;2023-08-06T09:04:08;15.80;99.90
41310;DHT22;27057;51.438;-0.010;2023-08-06T09:06:38;15.90;99.90
41310;DHT22;27057;51.438;-0.010;2023-08-06T09:09:09;15.90;99.90
41310;DHT22;27057;51.438;-0.010;2023-08-06T09:11:45;15.70;99.90
41310;DHT22;27057;51.438;-0.010;2023-08-06T09:14:12;16.00;99.90
41310;DHT22;27057;51.438;-0.010;2023-08-06T09:16:40;16.10;99.90
41310;DHT22;27057;51.438;-0.010;2023-08-06T09:19:14;16.20;99.90
41310;DHT22;27057;51.438;-0.010;2023-08-06T09:21:45;16.30;99.90
41310;DHT22;27057;51.438;-0.010;2023-08-06T09:24:15;16.50;99.90
41310;DHT22;27057;51.438;-0.010;2023-08-06T09:26:44;16.70;99.90
41310;DHT22;27057;51.438;-0.010;2023-08-06T09:29:12;16.70;99.90
41310;DHT22;27057;51.438;-0.010;2023-08-06T09:31:47;16.90;99.90
41310;DHT22;27057;51.438;-0.010;2023-08-06T09:34:18;17.60;99.90
41310;DHT22;27057;51.438;-0.010;2023-08-06T09:36:50;16.90;99.90
41310;DHT22;27057;51.438;-0.010;2023-08-06T09:39:26;17.10;99.90
41310;DHT22;27057;51.438;-0.010;2023-08-06T09:41:58;17.20;99.90
41310;DHT22;27057;51.438;-0.010;2023-08-06T09:44:27;17.30;99.90
41310;DHT22;27057;51.438;-0.010;2023-08-06T09:46:56;17.30;99.90
41310;DHT22;27057;51.438;-0.010;2023-08-06T09:49:28;17.40;99.90
41310;DHT22;27057;51.438;-0.010;2023-08-06T09:51:55;17.30;99.90
41310;DHT22;27057;51.438;-0.010;2023-08-06T09:54:26;17.60;99.90
41310;DHT22;27057;51.438;-0.010;2023-08-06T09:56:54;17.20;99.90
41310;DHT22;27057;51.438;-0.010;2023-08-06T09:59:23;17.50;99.90
41310;DHT22;27057;51.438;-0.010;2023-08-06T10:01:51;17.60;99.90
41310;DHT22;27057;51.438;-0.010;2023-08-06T10:04:20;17.60;99.90
41310;DHT22;27057;51.438;-0.010;2023-08-06T10:06:52;18.00;99.90
41310;DHT22;27057;51.438;-0.010;2023-08-06T10:09:20;17.80;99.90
41310;DHT22;27057;51.438;-0.010;2023-08-06T10:11:51;18.00;99.90
41310;DHT22;27057;51.438;-0.010;2023-08-06T10:14:30;18.20;99.90
41310;DHT22;27057;51.438;-0.010;2023-08-06T10:17:00;17.90;99.90
41310;DHT22;27057;51.438;-0.010;2023-08-06T10:19:29;18.10;99.90
41310;DHT22;27057;51.438;-0.010;2023-08-06T10:22:11;17.80;99.90
41310;DHT22;27057;51.438;-0.010;2023-08-06T10:24:56;17.90;99.90
41310;DHT22;27057;51.438;-0.010;2023-08-06T10:27:40;18.00;99.90
41310;DHT22;27057;51.438;-0.010;2023-08-06T10:30:21;18.40;99.90
41310;DHT22;27057;51.438;-0.010;2023-08-06T10:33:08;18.20;99.90
41310;DHT22;27057;51.438;-0.010;2023-08-06T10:35:44;18.20;99.90
41310;DHT22;27057;51.438;-0.010;2023-08-06T10:38:16;18.30;99.90
41310;DHT22;27057;51.438;-0.010;2023-08-06T10:43:35;18.30;99.90
41310;DHT22;27057;51.438;-0.010;2023-08-06T10:46:10;18.40;99.90
41310;DHT22;27057;51.438;-0.010;2023-08-06T10:48:39;18.40;99.90
41310;DHT22;27057;51.438;-0.010;2023-08-06T10:51:13;18.40;99.90
41310;DHT22;27057;51.438;-0.010;2023-08-06T10:53:43;18.40;99.90
41310;DHT22;27057;51.438;-0.010;2023-08-06T10:56:24;18.30;99.90
41310;DHT22;27057;51.438;-0.010;2023-08-06T10:58:55;18.20;99.90
41310;DHT22;27057;51.438;-0.010;2023-08-06T11:01:28;18.10;99.90
41310;DHT22;27057;51.438;-0.010;2023-08-06T11:04:02;18.20;99.90
41310;DHT22;27057;51.438;-0.010;2023-08-06T11:06:29;18.20;99.90
41310;DHT22;27057;51.438;-0.010;2023-08-06T11:08:57;18.20;99.90
41310;DHT22;27057;51.438;-0.010;2023-08-06T11:11:24;18.30;99.90
41310;DHT22;27057;51.438;-0.010;2023-08-06T11:13:52;18.30;99.90
41310;DHT22;27057;51.438;-0.010;2023-08-06T11:16:21;18.30;99.90
41310;DHT22;27057;51.438;-0.010;2023-08-06T11:18:51;18.10;99.90
41310;DHT22;27057;51.438;-0.010;2023-08-06T11:21:20;17.90;99.90
41310;DHT22;27057;51.438;-0.010;2023-08-06T11:23:48;17.90;99.90
41310;DHT22;27057;51.438;-0.010;2023-08-06T11:26:19;17.60;99.90
41310;DHT22;27057;51.438;-0.010;2023-08-06T11:28:47;17.60;99.90
41310;DHT22;27057;51.438;-0.010;2023-08-06T11:31:21;17.50;99.90
41310;DHT22;27057;51.438;-0.010;2023-08-06T11:33:53;17.50;99.90
41310;DHT22;27057;51.438;-0.010;2023-08-06T11:36:34;17.60;99.90
41310;DHT22;27057;51.438;-0.010;2023-08-06T11:39:03;17.70;99.90
41310;DHT22;27057;51.438;-0.010;2023-08-06T11:41:34;17.80;99.90
41310;DHT22;27057;51.438;-0.010;2023-08-06T11:44:03;18.00;99.90
41310;DHT22;27057;51.438;-0.010;2023-08-06T11:46:50;18.00;99.90
41310;DHT22;27057;51.438;-0.010;2023-08-06T11:49:19;18.10;99.90
41310;DHT22;27057;51.438;-0.010;2023-08-06T11:51:48;18.20;99.90
41310;DHT22;27057;51.438;-0.010;2023-08-06T11:54:16;18.40;99.90
41310;DHT22;27057;51.438;-0.010;2023-08-06T11:56:46;18.60;99.90
41310;DHT22;27057;51.438;-0.010;2023-08-06T11:59:13;18.90;99.90
41310;DHT22;27057;51.438;-0.010;2023-08-06T12:01:41;19.00;99.90
41310;DHT22;27057;51.438;-0.010;2023-08-06T12:04:08;19.20;99.90
41310;DHT22;27057;51.438;-0.010;2023-08-06T12:06:42;19.30;99.90
41310;DHT22;27057;51.438;-0.010;2023-08-06T12:09:10;19.00;99.90
41310;DHT22;27057;51.438;-0.010;2023-08-06T12:11:38;18.90;99.90
41310;DHT22;27057;51.438;-0.010;2023-08-06T12:14:05;19.10;99.90
41310;DHT22;27057;51.438;-0.010;2023-08-06T12:16:32;19.30;99.90
41310;DHT22;27057;51.438;-0.010;2023-08-06T12:19:00;19.30;99.90
41310;DHT22;27057;51.438;-0.010;2023-08-06T12:21:27;19.30;99.90
41310;DHT22;27057;51.438;-0.010;2023-08-06T12:23:54;19.70;99.90
41310;DHT22;27057;51.438;-0.010;2023-08-06T12:26:22;19.50;99.90
41310;DHT22;27057;51.438;-0.010;2023-08-06T12:28:49;19.40;99.90
41310;DHT22;27057;51.438;-0.010;2023-08-06T12:31:17;19.10;99.90
41310;DHT22;27057;51.438;-0.010;2023-08-06T12:33:44;19.00;99.90
41310;DHT22;27057;51.438;-0.010;2023-08-06T12:36:11;18.90;99.90
41310;DHT22;27057;51.438;-0.010;2023-08-06T12:38:39;18.90;99.90
41310;DHT22;27057;51.438;-0.010;2023-08-06T12:41:06;18.90;99.90
41310;DHT22;27057;51.438;-0.010;2023-08-06T12:43:34;19.10;99.90
41310;DHT22;27057;51.438;-0.010;2023-08-06T12:46:01;19.70;99.90
41310;DHT22;27057;51.438;-0.010;2023-08-06T12:48:28;19.80;99.90
41310;DHT22;27057;51.438;-0.010;2023-08-06T12:50:56;20.10;99.90
41310;DHT22;27057;51.438;-0.010;2023-08-06T12:53:23;20.10;99.90
41310;DHT22;27057;51.438;-0.010;2023-08-06T12:55:50;20.00;99.90
41310;DHT22;27057;51.438;-0.010;2023-08-06T12:58:18;19.70;99.90
41310;DHT22;27057;51.438;-0.010;2023-08-06T13:00:45;19.50;99.90
41310;DHT22;27057;51.438;-0.010;2023-08-06T13:03:12;19.80;99.90
41310;DHT22;27057;51.438;-0.010;2023-08-06T13:05:40;19.40;99.90
41310;DHT22;27057;51.438;-0.010;2023-08-06T13:08:07;19.50;99.90
41310;DHT22;27057;51.438;-0.010;2023-08-06T13:10:35;19.40;99.90
41310;DHT22;27057;51.438;-0.010;2023-08-06T13:13:02;19.10;99.90
41310;DHT22;27057;51.438;-0.010;2023-08-06T13:15:30;18.90;99.90
41310;DHT22;27057;51.438;-0.010;2023-08-06T13:20:26;18.60;99.90
41310;DHT22;27057;51.438;-0.010;2023-08-06T13:22:54;18.40;99.90
41310;DHT22;27057;51.438;-0.010;2023-08-06T13:25:22;18.30;99.90
41310;DHT22;27057;51.438;-0.010;2023-08-06T13:27:50;18.20;99.90
41310;DHT22;27057;51.438;-0.010;2023-08-06T13:30:17;18.10;99.90
41310;DHT22;27057;51.438;-0.010;2023-08-06T13:32:45;18.10;99.90
41310;DHT22;27057;51.438;-0.010;2023-08-06T13:37:41;18.50;99.90
41310;DHT22;27057;51.438;-0.010;2023-08-06T13:40:08;19.00;99.90
41310;DHT22;27057;51.438;-0.010;2023-08-06T13:42:35;19.10;99.90
41310;DHT22;27057;51.438;-0.010;2023-08-06T13:45:04;19.30;99.90
41310;DHT22;27057;51.438;-0.010;2023-08-06T13:47:31;19.50;99.90
41310;DHT22;27057;51.438;-0.010;2023-08-06T13:49:59;19.60;99.90
41310;DHT22;27057;51.438;-0.010;2023-08-06T13:52:26;19.50;99.90
41310;DHT22;27057;51.438;-0.010;2023-08-06T13:54:54;19.40;99.90
41310;DHT22;27057;51.438;-0.010;2023-08-06T13:57:21;19.50;99.90
41310;DHT22;27057;51.438;-0.010;2023-08-06T13:59:48;19.50;99.90
41310;DHT22;27057;51.438;-0.010;2023-08-06T14:02:16;19.80;99.90
41310;DHT22;27057;51.438;-0.010;2023-08-06T14:04:43;19.80;99.90
41310;DHT22;27057;51.438;-0.010;2023-08-06T14:07:11;20.20;99.90
41310;DHT22;27057;51.438;-0.010;2023-08-06T14:09:38;20.60;99.90
41310;DHT22;27057;51.438;-0.010;2023-08-06T14:12:07;21.10;99.90
41310;DHT22;27057;51.438;-0.010;2023-08-06T14:14:34;21.50;99.90
41310;DHT22;27057;51.438;-0.010;2023-08-06T14:17:01;22.00;99.90
41310;DHT22;27057;51.438;-0.010;2023-08-06T14:19:29;22.20;99.90
41310;DHT22;27057;51.438;-0.010;2023-08-06T14:21:57;22.50;99.90
41310;DHT22;27057;51.438;-0.010;2023-08-06T14:24:24;22.70;99.90
41310;DHT22;27057;51.438;-0.010;2023-08-06T14:26:51;23.00;99.90
41310;DHT22;27057;51.438;-0.010;2023-08-06T14:29:19;23.20;99.90
41310;DHT22;27057;51.438;-0.010;2023-08-06T14:31:47;22.90;99.90
41310;DHT22;27057;51.438;-0.010;2023-08-06T14:34:14;22.40;99.90
41310;DHT22;27057;51.438;-0.010;2023-08-06T14:36:42;21.80;99.90
41310;DHT22;27057;51.438;-0.010;2023-08-06T14:39:09;21.30;99.90
41310;DHT22;27057;51.438;-0.010;2023-08-06T14:41:36;20.90;99.90
41310;DHT22;27057;51.438;-0.010;2023-08-06T14:44:04;20.60;99.90
41310;DHT22;27057;51.438;-0.010;2023-08-06T14:46:31;20.50;99.90
41310;DHT22;27057;51.438;-0.010;2023-08-06T14:48:58;20.30;99.90
41310;DHT22;27057;51.438;-0.010;2023-08-06T14:51:26;20.30;99.90
41310;DHT22;27057;51.438;-0.010;2023-08-06T14:53:53;20.40;99.90
41310;DHT22;27057;51.438;-0.010;2023-08-06T14:56:20;20.70;99.90
41310;DHT22;27057;51.438;-0.010;2023-08-06T14:58:48;21.50;99.90
41310;DHT22;27057;51.438;-0.010;2023-08-06T15:01:15;21.70;99.90
41310;DHT22;27057;51.438;-0.010;2023-08-06T15:03:42;21.40;99.90
41310;DHT22;27057;51.438;-0.010;2023-08-06T15:06:10;21.20;99.90
41310;DHT22;27057;51.438;-0.010;2023-08-06T15:08:37;20.90;99.90
41310;DHT22;27057;51.438;-0.010;2023-08-06T15:11:04;20.60;99.90
41310;DHT22;27057;51.438;-0.010;2023-08-06T15:13:32;20.50;99.90
41310;DHT22;27057;51.438;-0.010;2023-08-06T15:15:59;20.70;99.90
41310;DHT22;27057;51.438;-0.010;2023-08-06T15:18:26;21.00;99.90
41310;DHT22;27057;51.438;-0.010;2023-08-06T15:20:54;21.60;99.90
41310;DHT22;27057;51.438;-0.010;2023-08-06T15:23:21;22.30;99.90
41310;DHT22;27057;51.438;-0.010;2023-08-06T15:25:49;22.40;99.90
41310;DHT22;27057;51.438;-0.010;2023-08-06T15:28:17;22.20;99.90
41310;DHT22;27057;51.438;-0.010;2023-08-06T15:30:51;22.20;99.90
41310;DHT22;27057;51.438;-0.010;2023-08-06T15:33:19;22.10;99.90
41310;DHT22;27057;51.438;-0.010;2023-08-06T15:35:47;22.10;99.90
41310;DHT22;27057;51.438;-0.010;2023-08-06T15:38:15;22.60;99.90